Time;durP1;ratioP1;P1;durP2;ratioP2;P2;SDS_P1;SDS_P2;PMS_P1;PMS_P2;Temp;Humidity;BMP_temperature;BMP_pressure;BME280_temperature;BME280_humidity;BME280_pressure;Samples;Min_cycle;Max_cycle;Signal;HPM_P1;HPM_P2
2023/09/17 00:01:12;;;;;;;11.60;8.00;;;;;;;16.85;100.00;150298.75;4917738;28;20246;-57
2023/09/17 00:03:39;;;;;;;10.90;7.70;;;;;;;16.83;100.00;150293.75;4920382;28;20239;-57
2023/09/17 00:06:06;;;;;;;10.43;7.83;;;;;;;16.90;100.00;150309.97;4915118;28;20232;-57
2023/09/17 00:08:33;;;;;;;11.13;7.80;;;;;;;16.83;100.00;150293.75;4919739;28;20690;-57
2023/09/17 00:10:59;;;;;;;11.10;7.33;;;;;;;16.74;100.00;150271.22;4917618;28;20626;-57
2023/09/17 00:13:26;;;;;;;9.27;7.57;;;;;;;16.71;100.00;150263.72;4926187;28;20710;-57
2023/09/17 00:16:00;;;;;;;8.57;7.30;;;;;;;16.64;100.00;150248.72;4916293;28;20566;-58
2023/09/17 00:18:33;;;;;;;8.53;7.60;;;;;;;16.61;100.00;150241.22;4922246;28;20230;-56
2023/09/17 00:21:00;;;;;;;10.53;7.67;;;;;;;16.61;100.00;150239.94;4912094;28;20244;-55
2023/09/17 00:23:27;;;;;;;10.10;7.03;;;;;;;16.59;100.00;150236.22;4920138;28;20264;-56
2023/09/17 00:25:59;;;;;;;10.60;7.63;;;;;;;16.67;100.00;150256.22;4916603;28;20227;-56
2023/09/17 00:28:25;;;;;;;9.03;6.63;;;;;;;16.64;100.00;150248.72;4921253;28;20239;-56
2023/09/17 00:31:17;;;;;;;8.03;7.00;;;;;;;16.56;100.00;150227.44;4916440;28;20706;-56
2023/09/17 00:33:45;;;;;;;10.10;7.03;;;;;;;16.50;100.00;150213.72;4917742;28;20291;-56
2023/09/17 00:36:12;;;;;;;11.03;7.50;;;;;;;16.48;100.00;150209.94;4935060;28;20322;-56
2023/09/17 00:38:38;;;;;;;8.97;7.43;;;;;;;16.40;100.00;150190.00;4920294;28;20227;-56
2023/09/17 00:41:05;;;;;;;11.17;7.33;;;;;;;16.41;100.00;150192.50;4914918;28;20242;-57
2023/09/17 00:43:32;;;;;;;8.63;7.30;;;;;;;16.37;100.00;150183.72;4925117;28;20239;-56
2023/09/17 00:45:59;;;;;;;10.00;7.10;;;;;;;16.35;100.00;150177.50;4915943;28;20238;-56
2023/09/17 00:48:27;;;;;;;9.20;7.43;;;;;;;16.29;100.00;150162.50;4921368;28;20231;-56
2023/09/17 00:51:00;;;;;;;8.73;6.90;;;;;;;16.30;100.00;150165.00;4934549;28;20246;-56
2023/09/17 00:53:28;;;;;;;7.80;6.53;;;;;;;16.29;100.00;150162.50;4922328;28;20234;-56
2023/09/17 00:56:00;;;;;;;8.07;6.77;;;;;;;16.23;100.00;150150.00;4931288;28;20241;-56
2023/09/17 00:58:28;;;;;;;11.60;7.33;;;;;;;16.23;100.00;150148.72;4918421;28;20246;-56
2023/09/17 01:00:59;;;;;;;11.43;7.03;;;;;;;16.25;100.00;150153.72;4913974;28;20236;-56
2023/09/17 01:03:27;;;;;;;7.53;6.73;;;;;;;16.26;100.00;150155.00;4917729;28;20243;-56
2023/09/17 01:06:03;;;;;;;8.60;7.20;;;;;;;16.26;100.00;150155.00;4919411;28;20215;-56
2023/09/17 01:08:31;;;;;;;9.93;6.93;;;;;;;16.28;100.00;150161.22;4919334;28;20237;-56
2023/09/17 01:11:01;;;;;;;8.23;6.73;;;;;;;16.35;100.00;150178.72;4916134;28;20322;-56
2023/09/17 01:13:28;;;;;;;8.10;6.57;;;;;;;16.35;100.00;150177.50;4920496;28;20239;-56
2023/09/17 01:15:59;;;;;;;5.80;5.20;;;;;;;16.47;100.00;150206.22;4929865;28;20267;-56
2023/09/17 01:18:27;;;;;;;7.33;6.07;;;;;;;16.46;100.00;150204.94;4933573;28;20259;-56
2023/09/17 01:21:07;;;;;;;7.30;4.70;;;;;;;16.50;100.00;150214.94;4915559;28;20292;-56
2023/09/17 01:23:39;;;;;;;5.07;4.30;;;;;;;16.49;100.00;150211.22;4918388;28;20230;-56
2023/09/17 01:26:13;;;;;;;6.97;4.87;;;;;;;16.56;100.00;150228.72;4915981;28;20244;-56
2023/09/17 01:28:41;;;;;;;5.13;4.60;;;;;;;16.59;100.00;150236.22;4933948;28;20290;-56
2023/09/17 01:31:09;;;;;;;4.53;4.00;;;;;;;16.52;100.00;150219.94;4916788;28;20277;-56
2023/09/17 01:33:36;;;;;;;7.97;3.83;;;;;;;16.48;100.00;150208.72;4920440;28;20225;-56
2023/09/17 01:36:12;;;;;;;7.03;3.80;;;;;;;16.44;100.00;150199.94;4930277;28;20297;-56
2023/09/17 01:38:45;;;;;;;6.30;4.13;;;;;;;16.35;100.00;150178.72;4920256;29;20225;-56
2023/09/17 01:41:12;;;;;;;6.43;3.30;;;;;;;16.37;100.00;150183.72;4930420;28;21813;-56
2023/09/17 01:43:43;;;;;;;4.93;3.30;;;;;;;16.33;100.00;150173.72;4918514;29;20220;-56
2023/09/17 01:46:09;;;;;;;4.73;3.47;;;;;;;16.28;100.00;150161.22;4923289;28;20230;-56
2023/09/17 01:48:38;;;;;;;4.27;3.07;;;;;;;16.35;100.00;150178.72;4916930;29;20236;-56
2023/09/17 01:51:09;;;;;;;6.73;3.50;;;;;;;16.41;100.00;150191.22;4933617;28;20238;-56
2023/09/17 01:53:36;;;;;;;4.50;3.17;;;;;;;16.41;100.00;150191.22;4917321;28;20226;-56
2023/09/17 01:56:04;;;;;;;7.00;3.70;;;;;;;16.35;100.00;150178.72;4911035;28;20290;-56
2023/09/17 01:58:31;;;;;;;3.97;3.00;;;;;;;16.35;100.00;150178.72;4920902;28;20239;-57
2023/09/17 02:01:00;;;;;;;4.83;3.47;;;;;;;16.29;100.00;150163.72;4914024;28;20232;-57
2023/09/17 02:03:28;;;;;;;4.17;3.30;;;;;;;16.26;100.00;150155.00;4938395;28;20246;-57
2023/09/17 02:05:59;;;;;;;3.80;3.40;;;;;;;16.22;100.00;150146.22;4915854;28;20230;-57
2023/09/17 02:08:26;;;;;;;4.77;3.30;;;;;;;16.17;100.00;150135.00;4922054;28;20241;-56
2023/09/17 02:10:59;;;;;;;5.00;3.57;;;;;;;16.15;100.00;150130.00;4931089;28;20319;-56
2023/09/17 02:13:25;;;;;;;6.13;3.60;;;;;;;16.15;100.00;150130.00;4931879;28;20724;-56
2023/09/17 02:16:20;;;;;;;4.20;3.13;;;;;;;16.16;100.00;150131.22;4912796;28;21631;-56
2023/09/17 02:18:47;;;;;;;5.97;3.03;;;;;;;16.13;100.00;150123.72;4934961;28;20580;-56
2023/09/17 02:21:14;;;;;;;5.30;3.80;;;;;;;16.13;100.00;150123.72;4934002;28;20767;-56
2023/09/17 02:23:40;;;;;;;6.90;3.33;;;;;;;16.09;100.00;150115.00;4917755;29;20225;-57
2023/09/17 02:26:07;;;;;;;4.90;3.13;;;;;;;16.12;100.00;150122.50;4914832;28;20321;-56
2023/09/17 02:28:34;;;;;;;6.40;3.43;;;;;;;16.09;100.00;150116.22;4918761;28;20234;-56
2023/09/17 02:31:02;;;;;;;4.47;2.90;;;;;;;16.10;100.00;150117.50;4931556;28;20238;-56
2023/09/17 02:33:30;;;;;;;5.03;3.13;;;;;;;16.02;100.00;150098.72;4916518;28;20235;-56
2023/09/17 02:36:00;;;;;;;7.23;3.57;;;;;;;16.02;100.00;150097.50;4916132;28;20287;-56
2023/09/17 02:38:27;;;;;;;6.17;3.27;;;;;;;16.01;100.00;150096.22;4916690;28;20241;-56
2023/09/17 02:41:00;;;;;;;7.47;3.63;;;;;;;15.97;100.00;150086.22;4914657;28;20539;-56
2023/09/17 02:43:29;;;;;;;4.67;3.60;;;;;;;15.98;100.00;150087.50;4914358;28;20231;-56
2023/09/17 02:45:59;;;;;;;4.77;3.57;;;;;;;15.97;100.00;150086.22;4913828;28;20220;-56
2023/09/17 02:48:26;;;;;;;4.13;3.43;;;;;;;15.93;100.00;150077.50;4915015;28;20293;-56
2023/09/17 02:51:18;;;;;;;4.33;3.50;;;;;;;15.92;100.00;150073.72;4915226;28;20239;-56
2023/09/17 02:53:46;;;;;;;4.17;3.00;;;;;;;16.00;100.00;150093.72;4915391;28;20304;-56
2023/09/17 02:56:13;;;;;;;5.07;3.50;;;;;;;16.01;100.00;150095.00;4915415;28;20239;-56
2023/09/17 02:58:39;;;;;;;6.87;3.60;;;;;;;16.01;100.00;150096.22;4934725;28;20226;-55
2023/09/17 03:01:14;;;;;;;7.93;3.80;;;;;;;16.12;100.00;150121.22;4915480;28;20231;-55
2023/09/17 03:03:41;;;;;;;6.70;3.83;;;;;;;16.13;100.00;150123.72;4915981;28;20728;-55
2023/09/17 03:06:09;;;;;;;6.63;3.47;;;;;;;16.12;100.00;150122.50;4911875;28;21141;-56
2023/09/17 03:08:41;;;;;;;4.43;3.20;;;;;;;16.11;100.00;150120.00;4929475;28;20229;-55
2023/09/17 03:11:10;;;;;;;7.47;3.33;;;;;;;16.13;100.00;150125.00;4916216;28;20232;-56
2023/09/17 03:13:37;;;;;;;5.93;3.20;;;;;;;16.11;100.00;150118.72;4916317;28;20221;-56
2023/09/17 03:16:05;;;;;;;8.13;3.63;;;;;;;16.19;100.00;150140.00;4929817;28;20223;-56
2023/09/17 03:18:32;;;;;;;4.43;3.07;;;;;;;16.15;100.00;150130.00;4916145;28;20228;-55
2023/09/17 03:20:59;;;;;;;4.93;3.37;;;;;;;16.15;100.00;150128.72;4913875;28;21289;-56
2023/09/17 03:23:27;;;;;;;5.60;3.50;;;;;;;16.14;100.00;150126.22;4934283;28;20240;-56
2023/09/17 03:26:01;;;;;;;5.47;3.53;;;;;;;16.16;100.00;150131.22;4931445;28;20234;-56
2023/09/17 03:28:28;;;;;;;8.47;3.43;;;;;;;16.14;100.00;150126.22;4936125;28;20636;-56
2023/09/17 03:31:01;;;;;;;6.27;3.53;;;;;;;16.14;100.00;150126.22;5216262;23;21127;-67
2023/09/17 03:33:29;;;;;;;4.00;3.43;;;;;;;16.11;100.00;150118.72;4943803;28;20265;-67
2023/09/17 03:35:59;;;;;;;6.67;3.67;;;;;;;16.17;100.00;150135.00;4938757;28;20654;-67
2023/09/17 03:38:26;;;;;;;9.53;3.77;;;;;;;16.14;100.00;150126.22;4927276;28;20316;-66
2023/09/17 03:41:19;;;;;;;5.17;3.50;;;;;;;16.15;100.00;150128.72;4924052;28;20304;-67
2023/09/17 03:43:46;;;;;;;4.77;3.90;;;;;;;16.14;100.00;150127.50;4928910;29;20234;-67
2023/09/17 03:46:13;;;;;;;5.90;3.67;;;;;;;16.15;100.00;150128.72;4928109;28;20318;-67
2023/09/17 03:48:40;;;;;;;5.83;3.37;;;;;;;16.14;100.00;150126.22;4930127;29;20683;-67
2023/09/17 03:51:08;;;;;;;3.77;3.37;;;;;;;16.11;100.00;150118.72;4927927;28;20224;-67
2023/09/17 03:53:35;;;;;;;6.93;4.10;;;;;;;16.16;100.00;150131.22;4930735;29;20274;-66
2023/09/17 03:56:03;;;;;;;5.77;4.20;;;;;;;16.16;100.00;150131.22;4928327;28;20282;-67
2023/09/17 03:58:32;;;;;;;9.70;5.43;;;;;;;16.14;100.00;150127.50;4928938;29;20298;-67
2023/09/17 04:00:59;;;;;;;6.77;3.33;;;;;;;16.11;100.00;150120.00;4944752;28;20231;-66
2023/09/17 04:03:26;;;;;;;4.33;3.40;;;;;;;16.06;100.00;150108.72;4930587;29;20231;-66
2023/09/17 04:06:18;;;;;;;5.97;4.07;;;;;;;16.08;100.00;150113.72;4928359;28;20366;-66
2023/09/17 04:08:44;;;;;;;5.10;3.63;;;;;;;16.09;100.00;150116.22;4930772;28;20225;-66
2023/09/17 04:11:15;;;;;;;6.47;3.70;;;;;;;16.10;100.00;150117.50;4926392;28;20414;-66
2023/09/17 04:13:44;;;;;;;5.37;3.50;;;;;;;16.06;100.00;150108.72;4928514;29;20223;-66
2023/09/17 04:16:12;;;;;;;4.50;3.30;;;;;;;16.08;100.00;150113.72;4916859;28;20232;-66
2023/09/17 04:18:38;;;;;;;4.73;3.50;;;;;;;16.05;100.00;150106.22;4921079;29;20686;-66
2023/09/17 04:21:05;;;;;;;4.10;3.47;;;;;;;16.09;100.00;150116.22;4927511;28;20683;-66
2023/09/17 04:23:32;;;;;;;4.60;3.50;;;;;;;16.06;100.00;150108.72;4945210;28;20226;-66
2023/09/17 04:25:59;;;;;;;6.93;4.37;;;;;;;16.05;100.00;150106.22;4941161;28;20233;-66
2023/09/17 04:28:26;;;;;;;7.87;4.13;;;;;;;16.03;100.00;150100.00;4930241;29;20230;-66
2023/09/17 04:31:19;;;;;;;8.53;3.73;;;;;;;16.05;100.00;150106.22;4926370;28;20577;-66
2023/09/17 04:33:45;;;;;;;5.87;3.67;;;;;;;16.04;100.00;150103.72;4929157;29;20226;-66
2023/09/17 04:36:12;;;;;;;4.77;3.93;;;;;;;16.01;100.00;150096.22;4926472;28;20221;-67
2023/09/17 04:38:39;;;;;;;6.10;3.43;;;;;;;15.97;100.00;150086.22;4929301;29;20714;-66
2023/09/17 04:41:05;;;;;;;7.80;3.50;;;;;;;15.98;100.00;150088.72;4926782;28;20239;-66
2023/09/17 04:43:33;;;;;;;6.43;4.00;;;;;;;15.90;100.00;150070.00;4929035;29;20223;-66
2023/09/17 04:46:00;;;;;;;10.03;3.43;;;;;;;15.85;100.00;150057.44;4926000;28;20243;-66
2023/09/17 04:48:34;;;;;;;8.23;4.13;;;;;;;15.82;100.00;150048.72;4928747;29;20226;-66
2023/09/17 04:51:01;;;;;;;4.80;3.57;;;;;;;15.76;100.00;150036.22;4925447;28;20230;-66
2023/09/17 04:53:27;;;;;;;4.50;3.83;;;;;;;15.75;100.00;150033.72;4927792;28;20239;-67
2023/09/17 04:55:59;;;;;;;6.70;3.87;;;;;;;15.78;100.00;150039.94;4943476;28;20704;-67
2023/09/17 04:58:33;;;;;;;4.93;4.30;;;;;;;15.81;100.00;150046.22;4928225;29;20220;-67
2023/09/17 05:01:04;;;;;;;5.60;3.80;;;;;;;15.83;100.00;150051.22;4941420;28;20226;-67
2023/09/17 05:03:31;;;;;;;20.57;4.27;;;;;;;15.90;100.00;150070.00;4927965;29;20295;-67
2023/09/17 05:06:00;;;;;;;6.73;3.40;;;;;;;15.87;100.00;150061.28;4926324;28;20227;-67
2023/09/17 05:08:28;;;;;;;8.60;3.40;;;;;;;15.88;100.00;150063.78;4918530;29;20242;-67
2023/09/17 05:10:59;;;;;;;8.73;3.80;;;;;;;15.93;100.00;150076.22;4925438;28;20241;-67
2023/09/17 05:13:26;;;;;;;5.60;3.27;;;;;;;15.94;100.00;150078.72;4942591;28;20238;-67
2023/09/17 05:16:17;;;;;;;6.23;3.80;;;;;;;15.98;100.00;150087.50;4926863;28;20251;-67
2023/09/17 05:18:45;;;;;;;6.20;3.27;;;;;;;16.00;100.00;150092.50;4927953;29;20239;-67
2023/09/17 05:21:13;;;;;;;7.50;3.63;;;;;;;15.98;100.00;150088.72;4924059;28;20262;-67
2023/09/17 05:23:39;;;;;;;6.70;3.77;;;;;;;16.00;100.00;150092.50;4944290;28;20235;-67
2023/09/17 05:26:06;;;;;;;4.50;3.70;;;;;;;16.02;100.00;150097.50;4925064;28;20246;-67
2023/09/17 05:28:32;;;;;;;6.33;4.20;;;;;;;16.08;100.00;150113.72;4927554;29;20820;-67
2023/09/17 05:31:01;;;;;;;9.03;3.80;;;;;;;16.18;100.00;150137.50;4925117;28;20238;-67
2023/09/17 05:33:28;;;;;;;6.03;3.30;;;;;;;16.19;100.00;150138.72;4926732;28;20325;-67
2023/09/17 05:36:01;;;;;;;4.70;3.10;;;;;;;16.18;100.00;150137.50;4941684;28;20264;-67
2023/09/17 05:38:29;;;;;;;4.37;3.13;;;;;;;16.21;100.00;150145.00;4929598;29;20267;-67
2023/09/17 05:41:00;;;;;;;5.53;3.60;;;;;;;16.26;100.00;150155.00;4925500;28;20223;-67
2023/09/17 05:43:26;;;;;;;8.77;3.30;;;;;;;16.32;100.00;150170.00;4928335;29;20229;-67
2023/09/17 05:45:59;;;;;;;6.90;2.80;;;;;;;16.38;100.00;150186.22;4940817;28;20219;-67
2023/09/17 05:48:35;;;;;;;6.50;2.87;;;;;;;16.47;100.00;150206.22;4927711;29;20318;-67
2023/09/17 05:51:04;;;;;;;3.97;3.10;;;;;;;16.56;100.00;150227.44;4925441;28;20227;-67
2023/09/17 05:53:32;;;;;;;6.00;3.53;;;;;;;16.66;100.00;150253.72;4926384;29;20885;-67
2023/09/17 05:55:59;;;;;;;5.67;3.10;;;;;;;16.74;100.00;150271.22;4927245;28;20229;-67
2023/09/17 05:58:26;;;;;;;4.90;3.47;;;;;;;16.87;100.00;150302.47;4919727;29;20233;-67
2023/09/17 06:00:59;;;;;;;6.07;2.90;;;;;;;16.97;100.00;150328.75;4937709;28;20715;-67
2023/09/17 06:03:26;;;;;;;5.63;3.30;;;;;;;17.08;100.00;150355.03;4927074;29;20235;-67
2023/09/17 06:06:18;;;;;;;4.20;2.90;;;;;;;17.33;100.00;150415.09;4925172;28;20385;-67
2023/09/17 06:08:48;;;;;;;8.13;3.57;;;;;;;17.52;100.00;150460.06;4927031;29;20320;-67
2023/09/17 06:11:15;;;;;;;5.60;2.83;;;;;;;17.71;100.00;150506.38;4923913;28;20324;-67
2023/09/17 06:13:41;;;;;;;6.90;3.07;;;;;;;17.96;100.00;150567.66;4927053;29;20233;-67
2023/09/17 06:16:08;;;;;;;4.53;2.53;;;;;;;18.10;100.00;150601.47;4924548;28;20249;-67
2023/09/17 06:18:35;;;;;;;5.00;2.80;;;;;;;18.23;100.00;150632.78;4920140;29;20238;-66
2023/09/17 06:21:03;;;;;;;5.57;2.60;;;;;;;18.34;100.00;150659.03;4935220;28;20735;-66
2023/09/17 06:23:29;;;;;;;7.63;2.83;;;;;;;18.38;100.00;150669.06;4917668;29;20235;-66
2023/09/17 06:26:00;;;;;;;5.83;2.77;;;;;;;18.47;100.00;150689.06;4929360;28;20235;-66
2023/09/17 06:28:27;;;;;;;6.67;2.90;;;;;;;18.55;100.00;150709.09;4927075;29;20234;-66
2023/09/17 06:30:59;;;;;;;5.85;3.33;;;;;;;18.69;100.00;150744.16;4925290;28;20450;-66
2023/09/17 06:33:26;;;;;;;4.73;2.77;;;;;;;18.79;100.00;150767.91;4927635;29;20235;-66
2023/09/17 06:35:59;;;;;;;5.30;2.90;;;;;;;18.85;100.00;150781.72;4940525;28;20254;-66
2023/09/17 06:38:25;;;;;;;6.07;2.60;;;;;;;18.91;100.00;150795.47;4927626;29;20232;-66
2023/09/17 06:41:19;;;;;;;7.57;3.13;;;;;;;18.98;100.00;150813.03;4926048;28;20243;-67
2023/09/17 06:43:46;;;;;;;10.40;3.33;;;;;;;19.03;100.00;150825.56;4928324;28;20232;-66
2023/09/17 06:46:13;;;;;;;4.47;2.53;;;;;;;19.13;100.00;150850.59;4926047;28;20247;-66
2023/09/17 06:48:40;;;;;;;7.53;3.17;;;;;;;19.22;100.00;150871.88;4928213;28;20603;-66
2023/09/17 06:51:06;;;;;;;9.63;3.10;;;;;;;19.30;100.00;150891.91;4925168;28;20229;-66
2023/09/17 06:53:33;;;;;;;4.10;2.50;;;;;;;19.42;100.00;150919.44;4928243;28;20234;-66
2023/09/17 06:56:00;;;;;;;5.37;2.77;;;;;;;19.47;100.00;150931.97;4925333;28;20232;-66
2023/09/17 06:58:28;;;;;;;4.63;2.80;;;;;;;19.50;100.00;150938.25;4928162;28;20244;-66
2023/09/17 07:00:59;;;;;;;6.13;3.20;;;;;;;19.49;100.00;150936.97;4923236;28;20252;-66
2023/09/17 07:03:26;;;;;;;4.50;2.80;;;;;;;19.57;100.00;150957.03;4928725;28;20237;-66
2023/09/17 07:05:59;;;;;;;6.23;2.73;;;;;;;19.57;100.00;150957.03;4923906;28;20239;-66
2023/09/17 07:08:26;;;;;;;4.73;3.03;;;;;;;19.72;100.00;150993.31;4929444;28;20244;-66
2023/09/17 07:11:17;;;;;;;9.00;2.93;;;;;;;19.85;100.00;151024.66;4925965;28;20244;-66
2023/09/17 07:13:45;;;;;;;7.43;3.20;;;;;;;20.05;97.81;151073.53;4926948;28;20243;-66
2023/09/17 07:16:13;;;;;;;10.37;3.23;;;;;;;20.30;94.51;151133.69;4925527;28;20239;-66
2023/09/17 07:18:40;;;;;;;6.90;2.60;;;;;;;20.43;93.10;151163.75;4915969;29;20264;-66
2023/09/17 07:21:06;;;;;;;6.07;2.87;;;;;;;20.59;93.53;151202.56;4924733;28;20228;-66
2023/09/17 07:23:33;;;;;;;5.67;2.70;;;;;;;20.83;89.39;151261.50;4928827;28;20526;-66
2023/09/17 07:26:00;;;;;;;7.27;2.97;;;;;;;20.99;92.09;151300.38;4925634;28;21212;-66
2023/09/17 07:28:27;;;;;;;8.33;3.03;;;;;;;21.11;92.33;151327.94;4931083;28;20261;-66
2023/09/17 07:31:00;;;;;;;8.03;3.07;;;;;;;21.23;91.70;151358.00;4925989;28;20736;-66
2023/09/17 07:33:27;;;;;;;7.10;3.87;;;;;;;21.43;92.50;151405.63;4925059;28;20229;-66
2023/09/17 07:35:59;;;;;;;8.40;3.80;;;;;;;21.43;92.59;151406.91;4925018;28;20230;-66
2023/09/17 07:38:26;;;;;;;7.43;4.00;;;;;;;21.35;94.36;151386.84;4926810;28;20239;-66
2023/09/17 07:41:18;;;;;;;6.43;4.70;;;;;;;21.38;94.38;151395.59;4925202;28;20317;-66
2023/09/17 07:43:44;;;;;;;4.73;4.00;;;;;;;21.18;94.46;151346.72;4929705;28;20220;-66
2023/09/17 07:46:13;;;;;;;6.80;4.73;;;;;;;21.05;95.80;151315.41;4924026;28;20234;-67
2023/09/17 07:48:40;;;;;;;6.40;4.60;;;;;;;21.04;96.07;151311.63;4925788;28;20280;-66
2023/09/17 07:51:06;;;;;;;6.97;5.33;;;;;;;21.03;96.23;151309.13;4927329;28;20229;-67
2023/09/17 07:53:33;;;;;;;6.63;5.13;;;;;;;21.11;95.69;151327.94;4927441;28;20705;-67
2023/09/17 07:56:00;;;;;;;7.70;5.17;;;;;;;21.04;94.27;151312.91;4924688;28;20224;-67
2023/09/17 07:58:27;;;;;;;7.87;4.93;;;;;;;21.11;94.08;151327.94;4927461;28;20237;-67
2023/09/17 08:00:59;;;;;;;6.07;4.40;;;;;;;21.22;95.76;151356.75;4925760;28;20226;-67
2023/09/17 08:03:28;;;;;;;7.33;4.70;;;;;;;21.38;94.90;151395.59;4924723;28;20239;-66
2023/09/17 08:05:59;;;;;;;10.07;5.00;;;;;;;21.55;93.73;151434.50;4915097;28;20426;-67
2023/09/17 08:08:26;;;;;;;6.77;5.00;;;;;;;21.65;92.94;151460.84;4927911;28;20762;-67
2023/09/17 08:10:59;;;;;;;8.33;5.00;;;;;;;21.69;93.42;151469.66;4939504;28;20323;-67
2023/09/17 08:13:26;;;;;;;5.40;4.60;;;;;;;21.74;93.47;151480.91;4927218;28;20231;-67
2023/09/17 08:15:59;;;;;;;7.23;4.60;;;;;;;21.80;94.10;151497.19;4924816;28;20228;-67
2023/09/17 08:18:27;;;;;;;6.70;4.70;;;;;;;21.85;94.29;151507.22;4924818;28;20223;-67
2023/09/17 08:20:59;;;;;;;7.73;4.53;;;;;;;21.89;93.67;151518.53;4924182;28;20284;-67
2023/09/17 08:23:26;;;;;;;7.17;4.70;;;;;;;21.91;92.96;151522.25;4927281;28;20819;-67
2023/09/17 08:25:59;;;;;;;11.03;5.00;;;;;;;21.97;92.69;151538.59;4924603;28;20312;-67
2023/09/17 08:28:27;;;;;;;8.17;4.70;;;;;;;21.96;92.29;151534.81;4930369;28;20236;-67
2023/09/17 08:30:59;;;;;;;6.10;4.53;;;;;;;22.11;93.57;151571.19;4928714;28;20236;-67
2023/09/17 08:33:27;;;;;;;8.83;4.83;;;;;;;22.19;94.80;151591.28;4930956;28;20568;-67
2023/09/17 08:36:00;;;;;;;7.73;4.60;;;;;;;22.30;93.49;151617.59;4926920;28;20221;-67
2023/09/17 08:38:26;;;;;;;9.73;4.73;;;;;;;22.46;91.99;151656.50;4930395;28;20244;-67
2023/09/17 08:41:01;;;;;;;8.13;4.50;;;;;;;22.48;88.27;151661.50;4927087;28;20249;-67
2023/09/17 08:43:28;;;;;;;7.07;5.10;;;;;;;22.53;87.46;151672.81;4929523;28;20232;-67
2023/09/17 08:46:00;;;;;;;6.73;4.93;;;;;;;22.51;88.43;151667.81;4927570;28;20738;-67
2023/09/17 08:48:29;;;;;;;8.43;5.03;;;;;;;22.37;88.95;151633.88;4929210;28;20240;-67
2023/09/17 08:51:01;;;;;;;6.43;5.33;;;;;;;22.44;88.38;151650.19;4927797;28;20250;-67
2023/09/17 08:53:32;;;;;;;6.47;5.03;;;;;;;22.47;87.71;151659.00;4930314;28;20226;-67
2023/09/17 08:56:00;;;;;;;9.20;4.97;;;;;;;22.53;86.93;151674.06;4927222;28;20586;-67
2023/09/17 08:58:33;;;;;;;11.20;5.43;;;;;;;22.52;86.83;151671.53;4929964;28;20307;-67
2023/09/17 09:01:04;;;;;;;9.33;5.40;;;;;;;22.64;87.01;151699.16;4926520;28;20243;-67
2023/09/17 09:03:35;;;;;;;10.27;4.83;;;;;;;22.82;87.58;151744.31;4927366;28;20971;-67
2023/09/17 09:06:03;;;;;;;11.10;4.97;;;;;;;23.06;84.88;151800.75;4926333;28;20304;-67
2023/09/17 09:08:31;;;;;;;5.23;4.10;;;;;;;23.17;84.61;151828.34;4928981;28;20239;-67
2023/09/17 09:11:00;;;;;;;7.83;4.57;;;;;;;23.39;84.79;151881.13;4925500;28;20328;-67
2023/09/17 09:13:28;;;;;;;6.93;4.37;;;;;;;23.50;83.03;151908.72;4929451;28;20243;-67
2023/09/17 09:16:00;;;;;;;8.63;4.70;;;;;;;23.70;82.86;151956.44;4926190;28;20223;-67
2023/09/17 09:18:27;;;;;;;6.13;4.33;;;;;;;23.79;82.34;151977.75;4927754;28;21000;-67
2023/09/17 09:21:00;;;;;;;6.50;4.03;;;;;;;23.88;81.81;152000.34;4926620;28;20624;-67
2023/09/17 09:23:27;;;;;;;7.03;4.63;;;;;;;24.03;80.96;152036.78;4930673;28;20226;-67
2023/09/17 09:25:59;;;;;;;8.67;4.90;;;;;;;24.10;80.90;152053.13;4926066;28;20230;-67
2023/09/17 09:28:30;;;;;;;7.10;4.40;;;;;;;24.14;81.87;152063.16;4929035;28;20253;-67
2023/09/17 09:30:59;;;;;;;9.07;4.23;;;;;;;24.30;79.52;152102.06;4925837;28;20324;-67
2023/09/17 09:33:26;;;;;;;7.90;4.10;;;;;;;24.42;79.92;152132.19;4927308;28;20241;-67
2023/09/17 09:36:21;;;;;;;8.70;4.23;;;;;;;24.48;79.31;152145.97;4923570;28;20708;-67
2023/09/17 09:38:49;;;;;;;9.17;4.23;;;;;;;24.65;79.51;152186.16;4929844;28;20244;-67
2023/09/17 09:41:16;;;;;;;10.47;4.10;;;;;;;24.80;76.72;152222.66;4923322;28;20230;-67
2023/09/17 09:43:43;;;;;;;6.97;3.90;;;;;;;25.01;76.22;152275.38;4929960;28;20228;-67
2023/09/17 09:46:10;;;;;;;6.17;4.53;;;;;;;25.23;75.60;152326.88;4929342;28;20238;-67
2023/09/17 09:48:38;;;;;;;6.50;3.97;;;;;;;25.37;73.45;152362.06;4925646;28;20246;-67
2023/09/17 09:51:06;;;;;;;7.23;3.97;;;;;;;25.54;72.46;152402.28;4926770;28;20255;-67
2023/09/17 09:53:34;;;;;;;8.77;3.70;;;;;;;25.65;71.75;152429.91;4927169;28;20306;-67
2023/09/17 09:56:02;;;;;;;8.87;4.13;;;;;;;25.71;71.32;152443.75;4928772;28;20215;-67
2023/09/17 09:58:30;;;;;;;7.17;3.67;;;;;;;25.75;69.32;152455.03;4926160;28;20353;-67
2023/09/17 10:01:03;;;;;;;8.13;3.87;;;;;;;25.78;71.18;152462.59;4928753;28;20748;-67
2023/09/17 10:03:31;;;;;;;5.33;3.47;;;;;;;25.98;67.58;152510.34;4925060;28;20720;-67
2023/09/17 10:06:06;;;;;;;11.53;3.83;;;;;;;26.04;68.27;152524.13;4926898;29;20580;-67
2023/09/17 10:08:35;;;;;;;7.23;3.30;;;;;;;26.26;68.22;152578.25;4925947;28;20220;-67
2023/09/17 10:11:03;;;;;;;6.10;3.27;;;;;;;26.24;66.86;152573.22;4928810;28;20239;-67
2023/09/17 10:13:32;;;;;;;7.87;3.77;;;;;;;26.22;67.93;152568.19;4925723;28;20260;-67
2023/09/17 10:15:59;;;;;;;9.10;3.80;;;;;;;26.07;68.64;152531.69;4929153;28;20228;-67
2023/09/17 10:18:28;;;;;;;7.67;3.10;;;;;;;26.37;65.86;152605.91;4926280;28;20573;-67
2023/09/17 10:21:00;;;;;;;5.90;3.27;;;;;;;26.41;67.29;152613.44;4926990;28;20270;-67
2023/09/17 10:23:27;;;;;;;9.17;4.07;;;;;;;26.07;65.88;152532.97;4925154;28;20313;-67
2023/09/17 10:26:02;;;;;;;9.00;3.43;;;;;;;26.51;64.54;152639.81;4928241;28;20296;-67
2023/09/17 10:28:32;;;;;;;10.13;3.63;;;;;;;26.53;63.73;152643.56;4925170;28;20574;-67
2023/09/17 10:31:01;;;;;;;11.57;3.87;;;;;;;26.66;62.28;152675.00;4927973;28;20235;-67
2023/09/17 10:33:31;;;;;;;7.47;3.83;;;;;;;26.61;63.16;152663.69;4924437;28;20228;-67
2023/09/17 10:36:02;;;;;;;5.30;3.40;;;;;;;26.77;62.39;152702.66;4926380;28;20228;-67
2023/09/17 10:38:34;;;;;;;10.93;2.97;;;;;;;26.64;60.13;152671.22;4924255;28;20232;-65
2023/09/17 10:41:04;;;;;;;11.80;3.17;;;;;;;26.81;61.14;152712.72;4927052;28;20231;-66
2023/09/17 10:43:33;;;;;;;12.43;3.40;;;;;;;26.73;58.65;152692.63;4923543;28;20226;-67
2023/09/17 10:46:02;;;;;;;9.37;3.53;;;;;;;26.86;59.81;152724.06;4917881;29;20604;-66
2023/09/17 10:48:31;;;;;;;8.63;3.37;;;;;;;27.05;58.41;152770.56;4924762;28;20225;-66
2023/09/17 10:51:00;;;;;;;7.30;2.90;;;;;;;27.14;57.58;152791.97;4927427;28;20246;-66
2023/09/17 10:53:27;;;;;;;10.30;3.57;;;;;;;26.81;55.65;152711.44;4924752;28;20232;-67
2023/09/17 10:56:09;;;;;;;12.33;2.87;;;;;;;27.15;57.10;152793.19;4927592;28;20232;-67
2023/09/17 10:58:39;;;;;;;12.77;2.83;;;;;;;27.11;56.84;152785.66;4924230;28;20275;-67
2023/09/17 11:01:08;;;;;;;10.90;3.90;;;;;;;27.26;53.77;152822.13;4926803;28;20241;-67
2023/09/17 11:03:37;;;;;;;12.23;3.47;;;;;;;27.42;52.82;152859.88;4924848;28;28501;-67
2023/09/17 11:06:13;;;;;;;15.00;3.43;;;;;;;27.11;54.16;152784.41;4925798;28;20616;-67
2023/09/17 11:08:42;;;;;;;13.80;4.20;;;;;;;27.28;52.94;152825.88;4924437;28;20229;-63
2023/09/17 11:11:12;;;;;;;14.23;3.63;;;;;;;27.57;52.06;152895.06;4927915;28;20232;-65
2023/09/17 11:13:40;;;;;;;14.13;3.33;;;;;;;27.63;51.64;152911.44;4924576;28;20703;-63
2023/09/17 11:16:07;;;;;;;16.30;3.03;;;;;;;27.38;51.60;152851.03;4927795;28;20236;-63
2023/09/17 11:18:34;;;;;;;13.17;3.20;;;;;;;27.75;50.39;152940.34;4924696;28;20584;-66
2023/09/17 11:21:06;;;;;;;10.77;3.40;;;;;;;28.04;50.07;153010.78;4928484;28;20230;-67
2023/09/17 11:23:38;;;;;;;11.27;2.97;;;;;;;28.06;51.27;153014.59;4925129;28;20871;-67
2023/09/17 11:26:05;;;;;;;8.77;3.00;;;;;;;28.55;50.02;153135.38;4924458;28;20230;-67
2023/09/17 11:28:38;;;;;;;9.75;2.80;;;;;;;28.85;46.66;153207.13;4931845;28;20214;-67
2023/09/17 11:31:09;;;;;;;10.13;2.80;;;;;;;28.98;46.44;153238.59;4923019;28;20237;-66